createdAt,value
2023-02-02T00:02:00.170Z,62.24
2023-02-02T00:04:29.366Z,62.35
2023-02-02T00:06:59.272Z,62.32
2023-02-02T00:09:30.903Z,62.51
2023-02-02T00:11:58.835Z,62.26
2023-02-02T00:14:25.509Z,62.47
2023-02-02T00:16:56.400Z,62.19
2023-02-02T00:19:26.469Z,62.42
2023-02-02T00:21:54.308Z,62.33
2023-02-02T00:24:21.258Z,62.59
2023-02-02T00:26:50.728Z,62.63
2023-02-02T00:29:21.082Z,62.70
2023-02-02T00:31:48.041Z,62.65
2023-02-02T00:34:15.350Z,62.70
2023-02-02T00:36:42.777Z,62.63
2023-02-02T00:39:10.864Z,63.01
2023-02-02T00:41:37.464Z,62.81
2023-02-02T00:44:23.186Z,62.81
2023-02-02T00:46:49.807Z,62.92
2023-02-02T00:49:16.427Z,62.76
2023-02-02T00:51:42.999Z,62.80
2023-02-02T00:54:09.670Z,62.85
2023-02-02T00:56:36.192Z,62.77
2023-02-02T00:59:02.780Z,62.66
2023-02-02T01:01:29.462Z,62.77
2023-02-02T01:03:56.061Z,62.68
2023-02-02T01:06:23.195Z,62.67
2023-02-02T01:08:49.843Z,62.82
2023-02-02T01:11:17.191Z,62.74
2023-02-02T01:13:44.145Z,62.87
2023-02-02T01:16:11.294Z,62.81
2023-02-02T01:18:38.039Z,62.97
2023-02-02T01:21:07.095Z,62.96
2023-02-02T01:23:34.724Z,62.91
2023-02-02T01:26:02.629Z,63.13
2023-02-02T01:28:29.628Z,63.14
2023-02-02T01:30:56.685Z,63.10
2023-02-02T01:33:24.285Z,63.17
2023-02-02T01:35:53.263Z,63.29
2023-02-02T01:38:20.725Z,63.08
2023-02-02T01:40:49.564Z,63.40
2023-02-02T01:43:23.254Z,63.34
2023-02-02T01:45:51.191Z,63.36
2023-02-02T01:48:20.325Z,63.40
2023-02-02T01:50:48.739Z,63.42
2023-02-02T01:53:15.281Z,63.30
2023-02-02T01:55:42.328Z,63.28
2023-02-02T01:58:17.481Z,63.67
2023-02-02T02:00:46.627Z,63.40
2023-02-02T02:03:16.253Z,63.29
2023-02-02T02:05:49.794Z,63.37
2023-02-02T02:08:30.081Z,63.45
2023-02-02T02:10:57.225Z,63.37
2023-02-02T02:13:46.192Z,63.48
2023-02-02T02:16:33.388Z,63.37
2023-02-02T02:19:20.475Z,63.68
2023-02-02T02:22:25.796Z,63.47
2023-02-02T02:25:10.951Z,63.43
2023-02-02T02:28:12.670Z,63.52
2023-02-02T02:31:00.912Z,63.77
2023-02-02T02:33:29.748Z,63.54
2023-02-02T02:36:20.223Z,63.65
2023-02-02T02:38:59.010Z,63.75
2023-02-02T02:41:30.200Z,63.56
2023-02-02T02:44:00.713Z,63.85
2023-02-02T02:46:27.990Z,63.61
2023-02-02T02:48:58.317Z,63.74
2023-02-02T02:51:43.867Z,63.84
2023-02-02T02:54:16.857Z,63.77
2023-02-02T02:57:14.229Z,64.03
2023-02-02T03:00:27.408Z,63.90
2023-02-02T03:03:04.988Z,63.78
2023-02-02T03:05:52.580Z,63.87
2023-02-02T03:08:27.712Z,64.09
2023-02-02T03:10:56.033Z,64.05
2023-02-02T03:13:22.672Z,64.02
2023-02-02T03:15:49.222Z,64.01
2023-02-02T03:18:18.017Z,64.20
2023-02-02T03:20:45.759Z,64.14
2023-02-02T03:23:12.389Z,64.07
2023-02-02T03:25:38.898Z,64.15
2023-02-02T03:28:06.568Z,64.29
2023-02-02T03:30:33.819Z,64.29
2023-02-02T03:33:00.890Z,64.36
2023-02-02T03:35:27.410Z,64.43
2023-02-02T03:37:53.992Z,64.36
2023-02-02T03:40:20.580Z,64.48
2023-02-02T03:42:47.121Z,64.61
2023-02-02T03:45:13.852Z,64.63
2023-02-02T03:47:40.414Z,64.55
2023-02-02T03:50:09.768Z,64.58
2023-02-02T03:52:36.456Z,64.63
2023-02-02T03:55:03.170Z,64.63
2023-02-02T03:57:29.769Z,64.71
2023-02-02T03:59:56.327Z,64.74
2023-02-02T04:02:23.334Z,64.76
2023-02-02T04:04:49.864Z,64.75
2023-02-02T04:07:16.410Z,64.77
2023-02-02T04:09:42.936Z,64.89
2023-02-02T04:12:09.421Z,64.75
2023-02-02T04:14:35.956Z,64.82
2023-02-02T04:17:02.491Z,64.88
2023-02-02T04:19:29.137Z,64.88
2023-02-02T04:21:55.712Z,64.87
2023-02-02T04:24:22.215Z,64.82
2023-02-02T04:26:48.777Z,64.82
2023-02-02T04:29:15.407Z,64.97
2023-02-02T04:31:42.028Z,64.90
2023-02-02T04:34:08.702Z,64.88
2023-02-02T04:36:35.277Z,64.92
2023-02-02T04:39:01.874Z,64.85
2023-02-02T04:41:28.568Z,64.85
2023-02-02T04:43:55.125Z,64.91
2023-02-02T04:46:21.691Z,64.85
2023-02-02T04:48:49.678Z,65.02
2023-02-02T04:51:16.730Z,64.96
2023-02-02T04:53:43.238Z,65.09
2023-02-02T04:56:13.600Z,65.06
2023-02-02T04:58:40.729Z,65.15
2023-02-02T05:01:18.955Z,65.24
2023-02-02T05:03:46.523Z,65.06
2023-02-02T05:06:15.797Z,65.04
2023-02-02T05:08:45.643Z,65.33
2023-02-02T05:11:16.006Z,65.16
2023-02-02T05:13:50.508Z,65.23
2023-02-02T05:16:17.747Z,65.18
2023-02-02T05:18:51.142Z,65.06
2023-02-02T05:21:17.805Z,65.11
2023-02-02T05:23:44.454Z,65.28
2023-02-02T05:26:20.213Z,65.25
2023-02-02T05:28:46.871Z,65.30
2023-02-02T05:31:13.489Z,65.19
2023-02-02T05:33:40.109Z,65.40
2023-02-02T05:36:07.450Z,65.45
2023-02-02T05:38:34.501Z,65.42
2023-02-02T05:41:01.549Z,65.47
2023-02-02T05:43:29.615Z,65.40
2023-02-02T05:45:56.382Z,65.36
2023-02-02T05:48:23.061Z,65.19
2023-02-02T05:51:15.632Z,65.40
2023-02-02T05:53:44.304Z,65.38
2023-02-02T05:56:11.552Z,65.44
2023-02-02T05:58:38.170Z,65.44
2023-02-02T06:01:05.094Z,65.50
2023-02-02T06:03:31.861Z,65.69
2023-02-02T06:05:58.586Z,65.81
2023-02-02T06:08:25.151Z,65.95
2023-02-02T06:10:51.672Z,66.04
2023-02-02T06:13:18.231Z,65.96
2023-02-02T06:15:44.815Z,65.98
2023-02-02T06:18:11.385Z,65.95
2023-02-02T06:20:38.309Z,66.01
2023-02-02T06:23:05.378Z,65.88
2023-02-02T06:25:32.327Z,66.17
2023-02-02T06:27:59.859Z,65.98
2023-02-02T06:30:27.429Z,65.89
2023-02-02T06:32:54.270Z,65.72
2023-02-02T06:35:20.857Z,65.43
2023-02-02T06:37:47.423Z,65.59
2023-02-02T06:40:14.000Z,65.73
2023-02-02T06:42:41.017Z,65.45
2023-02-02T06:45:07.989Z,65.51
2023-02-02T06:47:34.541Z,65.55
2023-02-02T06:50:01.104Z,65.62
2023-02-02T06:52:27.687Z,65.64
2023-02-02T06:54:54.295Z,65.80
2023-02-02T06:57:20.904Z,65.81
2023-02-02T06:59:47.528Z,65.91
2023-02-02T07:02:14.222Z,65.78
2023-02-02T07:04:40.951Z,65.85
2023-02-02T07:07:07.520Z,65.81
2023-02-02T07:09:34.618Z,65.90
2023-02-02T07:12:01.423Z,65.82
2023-02-02T07:14:27.991Z,65.67
2023-02-02T07:16:54.526Z,65.64
2023-02-02T07:19:21.076Z,65.64
2023-02-02T07:21:47.696Z,65.50
2023-02-02T07:24:14.260Z,65.58
2023-02-02T07:26:40.946Z,65.51
2023-02-02T07:29:07.538Z,65.55
2023-02-02T07:31:36.321Z,65.50
2023-02-02T07:34:03.433Z,65.46
2023-02-02T07:36:30.113Z,65.50
2023-02-02T07:39:02.076Z,65.38
2023-02-02T07:41:28.648Z,65.50
2023-02-02T07:43:55.181Z,65.47
2023-02-02T07:46:21.774Z,65.31
2023-02-02T07:48:48.737Z,65.23
2023-02-02T07:51:17.441Z,65.34
2023-02-02T07:53:48.658Z,65.37
2023-02-02T07:56:20.461Z,65.52
2023-02-02T07:58:47.327Z,65.53
2023-02-02T08:01:15.457Z,65.65
2023-02-02T08:03:45.323Z,65.29
2023-02-02T08:06:17.516Z,65.45
2023-02-02T08:08:44.535Z,65.50
2023-02-02T08:11:12.680Z,65.52
2023-02-02T08:13:40.447Z,65.40
2023-02-02T08:16:07.497Z,65.34
2023-02-02T08:18:35.276Z,65.12
2023-02-02T08:21:02.679Z,65.00
2023-02-02T08:23:29.759Z,65.12
2023-02-02T08:26:09.002Z,64.91
2023-02-02T08:28:36.532Z,64.91
2023-02-02T08:31:17.037Z,64.90
2023-02-02T08:33:43.660Z,64.93
2023-02-02T08:36:13.234Z,64.74
2023-02-02T08:38:40.392Z,64.69
2023-02-02T08:41:12.711Z,64.61
2023-02-02T08:43:40.171Z,64.59
2023-02-02T08:46:08.957Z,64.42
2023-02-02T08:48:36.135Z,64.48
2023-02-02T08:51:03.163Z,64.39
2023-02-02T08:53:30.011Z,64.33
2023-02-02T08:56:14.527Z,64.20
2023-02-02T08:58:47.891Z,64.15
2023-02-02T09:01:23.427Z,64.05
2023-02-02T09:03:54.358Z,64.02
2023-02-02T09:06:21.512Z,63.92
2023-02-02T09:08:48.316Z,63.86
2023-02-02T09:11:17.317Z,63.80
2023-02-02T09:13:48.937Z,63.61
2023-02-02T09:16:17.764Z,63.63
2023-02-02T09:18:45.235Z,63.45
2023-02-02T09:21:13.754Z,63.47
2023-02-02T09:23:42.095Z,63.35
2023-02-02T09:26:20.691Z,63.37
2023-02-02T09:28:52.970Z,63.20
2023-02-02T09:31:19.661Z,63.06
2023-02-02T09:33:46.398Z,63.07
2023-02-02T09:36:23.959Z,63.06
2023-02-02T09:38:51.409Z,63.02
2023-02-02T09:41:36.418Z,62.90
2023-02-02T09:44:27.896Z,62.80
2023-02-02T09:47:18.160Z,62.75
2023-02-02T09:49:52.421Z,62.61
2023-02-02T09:52:23.328Z,62.46
2023-02-02T09:54:52.732Z,62.34
2023-02-02T09:57:23.516Z,62.31
2023-02-02T09:59:52.017Z,62.30
2023-02-02T10:02:23.122Z,62.13
2023-02-02T10:04:55.144Z,62.09
2023-02-02T10:07:30.508Z,62.16
2023-02-02T10:10:04.478Z,62.11
2023-02-02T10:12:47.368Z,61.96
2023-02-02T10:15:24.461Z,61.89
2023-02-02T10:18:12.609Z,61.77
2023-02-02T10:20:46.320Z,61.70
2023-02-02T10:23:22.920Z,61.70
2023-02-02T10:25:56.395Z,61.57
2023-02-02T10:28:50.193Z,61.52
2023-02-02T10:31:35.468Z,61.19
2023-02-02T10:34:08.325Z,61.24
2023-02-02T10:37:13.987Z,61.13
2023-02-02T10:40:05.479Z,61.10
2023-02-02T10:42:34.927Z,61.19
2023-02-02T10:45:13.355Z,60.90
2023-02-02T10:47:40.183Z,61.05
2023-02-02T10:50:12.551Z,60.87
2023-02-02T10:52:42.491Z,60.92
2023-02-02T10:55:33.402Z,61.01
2023-02-02T10:58:08.986Z,61.05
2023-02-02T11:00:42.290Z,61.11
2023-02-02T11:03:10.746Z,61.07
2023-02-02T11:05:56.264Z,61.01
2023-02-02T20:35:39.695Z,60.47
2023-02-02T20:38:37.069Z,60.30
2023-02-02T20:41:05.825Z,60.43
2023-02-02T20:43:32.462Z,60.77
2023-02-02T20:45:59.190Z,60.59
2023-02-02T20:48:27.671Z,60.67
2023-02-02T20:50:54.282Z,61.01
2023-02-02T20:53:21.223Z,61.01
2023-02-02T20:55:47.888Z,60.81
2023-02-02T20:58:14.675Z,60.92
2023-02-02T21:00:41.313Z,60.85
2023-02-02T21:03:07.987Z,60.77
2023-02-02T21:05:34.759Z,60.99
2023-02-02T21:08:01.373Z,61.16
2023-02-02T21:10:30.329Z,61.29
2023-02-02T21:12:56.898Z,61.56
2023-02-02T21:15:25.577Z,61.53
2023-02-02T21:17:52.845Z,61.62
2023-02-02T21:20:19.780Z,61.61
2023-02-02T21:22:46.473Z,61.59
2023-02-02T21:25:13.310Z,61.69
2023-02-02T21:27:44.533Z,61.70
2023-02-02T21:30:12.507Z,61.77
2023-02-02T21:32:39.320Z,61.63
2023-02-02T21:35:07.864Z,61.69
2023-02-02T21:37:36.612Z,61.51
2023-02-02T21:40:12.614Z,61.66
2023-02-02T21:42:39.290Z,61.50
2023-02-02T21:45:21.067Z,61.31
2023-02-02T21:47:52.262Z,61.40
2023-02-02T21:50:22.162Z,61.26
2023-02-02T21:52:48.907Z,61.27
2023-02-02T21:55:33.396Z,61.37
2023-02-02T21:58:01.762Z,61.31
2023-02-02T22:00:31.051Z,61.40
2023-02-02T22:02:59.141Z,61.13
2023-02-02T22:05:38.150Z,61.17
2023-02-02T22:08:18.800Z,61.34
2023-02-02T22:10:45.560Z,61.23
2023-02-02T22:13:21.357Z,61.31
2023-02-02T22:15:51.218Z,61.17
2023-02-02T22:18:20.701Z,61.27
2023-02-02T22:20:52.120Z,61.40
2023-02-02T22:23:23.385Z,61.29
2023-02-02T22:25:57.640Z,61.37
2023-02-02T22:28:28.504Z,61.28
2023-02-02T22:30:56.607Z,61.17
2023-02-02T22:33:24.333Z,61.29
2023-02-02T22:36:01.583Z,61.21
2023-02-02T22:38:29.682Z,61.02
2023-02-02T22:40:59.059Z,61.22
2023-02-02T22:43:26.123Z,61.00
2023-02-02T22:45:52.700Z,61.06
2023-02-02T22:48:19.361Z,61.10
2023-02-02T22:50:47.322Z,61.17
2023-02-02T22:53:15.594Z,61.19
2023-02-02T22:55:43.441Z,61.34
2023-02-02T22:58:10.192Z,61.22
2023-02-02T23:00:37.864Z,61.17
2023-02-02T23:03:04.505Z,61.26
2023-02-02T23:05:31.199Z,61.36
2023-02-02T23:07:57.855Z,61.38
2023-02-02T23:10:31.376Z,61.17
2023-02-02T23:12:59.107Z,61.21
2023-02-02T23:15:33.080Z,61.20
2023-02-02T23:17:59.916Z,61.27
2023-02-02T23:20:27.638Z,61.24
2023-02-02T23:22:54.324Z,61.35
2023-02-02T23:25:22.345Z,61.40
2023-02-02T23:27:49.221Z,61.24
2023-02-02T23:30:16.524Z,61.43
2023-02-02T23:32:43.374Z,61.36
2023-02-02T23:35:11.005Z,61.32
2023-02-02T23:37:44.104Z,61.15
2023-02-02T23:40:11.602Z,61.28
2023-02-02T23:42:38.265Z,61.13
2023-02-02T23:45:07.744Z,61.04
2023-02-02T23:47:35.181Z,61.11
2023-02-02T23:50:06.327Z,61.16
2023-02-02T23:52:42.001Z,61.16
2023-02-02T23:55:09.693Z,61.34
2023-02-02T23:57:39.422Z,61.45
